Meteo Giornale » Osservazioni meteo Stati Uniti (USA) » Devils Lake
ore: 12:56 - Osservazioni Meteo Devils Lake
Lat. 48° 7' N Lon. 98° 55' W Alt. 443 metri s.l.m.
24 °C
Sereno
Temp. 24 Ore
15 °C
25 °C
Sud-Ovest
46.3 Km/h
Dew point 9 °C
Umidità 38 %
Visibilità 10 Km
Il sole sorge alle ore 06:52
Il sole tramonta alle ore 20:19
| Data e Ora | Cielo e Fenomeni | T °C | DP °C | Um. % | Pres. hPa | Vis. km | Vento km/h | |
|---|---|---|---|---|---|---|---|---|
| Oggi h: 12:56 | Sereno | 24 | 9 | 38 | 1008 | 10 | SO 46.3 | |
| Oggi h: 11:56 | Sereno | 23 | 12 | 49 | 1009 | 10 | SO 35.2 | |
| Oggi h: 10:56 | Sereno | 21 | 13 | 60 | 1010 | 10 | SO 37 | |
| Oggi h: 09:56 | Sereno | 18 | 13 | 72 | 1010 | 10 | SO 31.5 | |
| Oggi h: 08:56 | Sereno | 17 | 13 | 77 | 1010 | 10 | SO 27.8 | |
| Oggi h: 08:27 | Poco Nuvoloso | 17 | 13 | 77 | 1010 | 10 | SO 25.9 | |
| Oggi h: 07:56 | Sereno | 16 | 14 | 87 | 1009 | 10 | O/SO 16.7 | |
| Oggi h: 07:18 | Poco Nuvoloso | 15 | 14 | 93 | 1009 | 10 | O/SO 16.7 | |
| Oggi h: 06:56 | Sereno | 16 | 14 | 87 | 1009 | 10 | O/SO 18.5 | |
| Oggi h: 05:56 | Sereno | 16 | 14 | 87 | 1009 | 10 | O/SO 16.7 | |
| Oggi h: 04:56 | Sereno | 16 | 14 | 87 | 1008 | 10 | O 16.7 | |
| Oggi h: 03:56 | Sereno | 16 | 15 | 93 | 1008 | 10 | O 20.3 | |
| Oggi h: 02:56 | Nuvoloso | 17 | 17 | 100 | 1008 | 10 | O 20.3 | |
| Oggi h: 02:35 | Coperto | 18 | 18 | 100 | 1007 | 10 | O 18.5 | |
| Oggi h: 01:56 | Coperto | 18 | 18 | 100 | 1007 | 10 | O 22.2 | |
| Oggi h: 01:42 | Coperto | 18 | 18 | 100 | 1007 | 10 | O 18.5 | |
| Oggi h: 00:56 | Coperto | 19 | 18 | 93 | 1007 | 10 | O 16.7 | |
| Ieri h: 23:56 | Molto Nuvoloso | 18 | 18 | 100 | 1006 | 10 | O 11.1 | |
| Ieri h: 22:56 | Pioggia | 18 | 18 | 100 | 1005 | 10 | N/NO 24 | |
| Ieri h: 22:44 | Pioggia Foschia | 18 | 18 | 100 | 1006 | 10 | NO 22.2 | |
| Ieri h: 22:36 | Temporale nelle vicinanze Pioggia | 19 | 19 | 100 | 1006 | 5 | NO 24 | |
| Ieri h: 22:30 | Temporale Foschia | 19 | 19 | 100 | 1007 | 3 | O/NO 29.6 | |
| Ieri h: 22:17 | Temporale Foschia | 21 | 21 | 100 | 1007 | 8 | O/SO 27.8 | |
| Ieri h: 22:03 | Temporale nelle vicinanze Pioggia | 21 | 21 | 100 | 1006 | 6 | S/SE 13 | |
| Ieri h: 21:56 | Pioggia | 21 | 21 | 100 | 1006 | 10 | S 13 | |
| Ieri h: 21:53 | Pioggia | 21 | 21 | 100 | 1006 | 10 | S 14.8 | |
| Ieri h: 21:25 | Pioggia | 22 | 21 | 94 | 1006 | 10 | S/SE 14.8 | |
| Ieri h: 21:10 | Temporale | 22 | 20 | 88 | 1006 | 10 | S/SE 18.5 | |
| Ieri h: 20:56 | Coperto | 22 | 20 | 88 | 1006 | 10 | S/SE 20.3 | |
| Ieri h: 19:56 | Coperto | 23 | 20 | 83 | 1006 | 10 | E/SE 13 | |
| Ieri h: 18:56 | Coperto | 23 | 20 | 83 | 1007 | 10 | SE 14.8 | |
| Ieri h: 17:56 | Coperto | 23 | 19 | 78 | 1006 | 10 | E/SE 24 | |
| Ieri h: 16:56 | Coperto | 24 | 20 | 78 | 1007 | 10 | E 16.7 | |
| Ieri h: 16:42 | Coperto | 24 | 20 | 78 | 1007 | 10 | E 18.5 | |
| Ieri h: 16:29 | Coperto | 24 | 20 | 78 | 1007 | 10 | E 20.3 | |
| Ieri h: 15:56 | Molto Nuvoloso | 25 | 19 | 69 | 1008 | 10 | E/SE 20.3 | |
| Ieri h: 14:56 | Molto Nuvoloso | 24 | 19 | 73 | 1008 | 10 | E 16.7 | |
| Ieri h: 13:56 | Coperto | 22 | 19 | 83 | 1009 | 10 | SE 9.3 | |



